sensor_id;sensor_type;location;lat;lon;timestamp;temperature;humidity
63802;DHT22;49949;43.060;25.624;2022-08-19T00:02:05;22.10;90.60
63802;DHT22;49949;43.060;25.624;2022-08-19T00:04:34;22.10;91.10
63802;DHT22;49949;43.060;25.624;2022-08-19T00:07:03;22.10;91.30
63802;DHT22;49949;43.060;25.624;2022-08-19T00:09:29;22.20;91.60
63802;DHT22;49949;43.060;25.624;2022-08-19T00:11:56;22.10;91.70
63802;DHT22;49949;43.060;25.624;2022-08-19T00:14:23;21.80;92.00
63802;DHT22;49949;43.060;25.624;2022-08-19T00:16:49;21.70;92.00
63802;DHT22;49949;43.060;25.624;2022-08-19T00:19:16;21.70;92.30
63802;DHT22;49949;43.060;25.624;2022-08-19T00:21:42;22.00;92.50
63802;DHT22;49949;43.060;25.624;2022-08-19T00:24:10;21.70;93.20
63802;DHT22;49949;43.060;25.624;2022-08-19T00:26:37;21.80;93.00
63802;DHT22;49949;43.060;25.624;2022-08-19T00:29:04;21.80;92.20
63802;DHT22;49949;43.060;25.624;2022-08-19T00:31:30;21.70;92.40
63802;DHT22;49949;43.060;25.624;2022-08-19T00:33:56;21.70;92.50
63802;DHT22;49949;43.060;25.624;2022-08-19T00:36:22;21.70;93.20
63802;DHT22;49949;43.060;25.624;2022-08-19T00:38:48;21.60;93.20
63802;DHT22;49949;43.060;25.624;2022-08-19T00:41:16;21.60;93.60
63802;DHT22;49949;43.060;25.624;2022-08-19T00:43:43;21.60;93.70
63802;DHT22;49949;43.060;25.624;2022-08-19T00:46:21;21.60;93.50
63802;DHT22;49949;43.060;25.624;2022-08-19T00:48:47;21.60;94.40
63802;DHT22;49949;43.060;25.624;2022-08-19T00:51:12;21.60;93.80
63802;DHT22;49949;43.060;25.624;2022-08-19T00:53:38;21.60;93.90
63802;DHT22;49949;43.060;25.624;2022-08-19T00:56:05;20.50;93.40
63802;DHT22;49949;43.060;25.624;2022-08-19T00:58:33;21.50;95.10
63802;DHT22;49949;43.060;25.624;2022-08-19T01:01:02;21.30;94.60
63802;DHT22;49949;43.060;25.624;2022-08-19T01:03:28;21.30;94.60
63802;DHT22;49949;43.060;25.624;2022-08-19T01:05:54;21.00;94.90
63802;DHT22;49949;43.060;25.624;2022-08-19T01:08:21;21.20;95.50
63802;DHT22;49949;43.060;25.624;2022-08-19T01:10:54;21.10;96.10
63802;DHT22;49949;43.060;25.624;2022-08-19T01:13:22;21.90;96.90
63802;DHT22;49949;43.060;25.624;2022-08-19T01:15:55;21.00;96.90
63802;DHT22;49949;43.060;25.624;2022-08-19T01:18:21;21.60;97.70
63802;DHT22;49949;43.060;25.624;2022-08-19T01:20:48;21.10;98.00
63802;DHT22;49949;43.060;25.624;2022-08-19T01:23:14;20.80;98.40
63802;DHT22;49949;43.060;25.624;2022-08-19T01:25:42;20.80;98.80
63802;DHT22;49949;43.060;25.624;2022-08-19T01:28:17;20.70;98.60
63802;DHT22;49949;43.060;25.624;2022-08-19T01:30:45;20.70;99.30
63802;DHT22;49949;43.060;25.624;2022-08-19T01:33:11;20.70;99.50
63802;DHT22;49949;43.060;25.624;2022-08-19T01:35:37;20.70;99.60
63802;DHT22;49949;43.060;25.624;2022-08-19T01:38:06;20.70;99.50
63802;DHT22;49949;43.060;25.624;2022-08-19T01:40:34;20.70;99.90
63802;DHT22;49949;43.060;25.624;2022-08-19T01:43:01;20.70;99.90
63802;DHT22;49949;43.060;25.624;2022-08-19T01:45:29;20.60;99.90
63802;DHT22;49949;43.060;25.624;2022-08-19T01:47:56;20.60;99.90
63802;DHT22;49949;43.060;25.624;2022-08-19T01:50:22;20.60;99.90
63802;DHT22;49949;43.060;25.624;2022-08-19T01:52:48;20.50;99.90
63802;DHT22;49949;43.060;25.624;2022-08-19T01:55:16;20.50;99.90
63802;DHT22;49949;43.060;25.624;2022-08-19T01:57:48;19.40;99.90
63802;DHT22;49949;43.060;25.624;2022-08-19T02:00:18;20.50;99.90
63802;DHT22;49949;43.060;25.624;2022-08-19T02:02:44;20.50;99.90
63802;DHT22;49949;43.060;25.624;2022-08-19T02:05:11;20.40;99.90
63802;DHT22;49949;43.060;25.624;2022-08-19T02:07:38;20.30;99.90
63802;DHT22;49949;43.060;25.624;2022-08-19T02:10:07;20.30;99.90
63802;DHT22;49949;43.060;25.624;2022-08-19T02:12:33;20.30;99.90
63802;DHT22;49949;43.060;25.624;2022-08-19T02:14:59;20.40;99.90
63802;DHT22;49949;43.060;25.624;2022-08-19T02:17:26;20.40;99.90
63802;DHT22;49949;43.060;25.624;2022-08-19T02:19:54;20.40;99.90
63802;DHT22;49949;43.060;25.624;2022-08-19T02:22:21;20.30;99.90
63802;DHT22;49949;43.060;25.624;2022-08-19T02:24:46;20.30;99.90
63802;DHT22;49949;43.060;25.624;2022-08-19T02:27:13;20.20;99.90
63802;DHT22;49949;43.060;25.624;2022-08-19T02:29:39;20.20;99.90
63802;DHT22;49949;43.060;25.624;2022-08-19T02:32:05;20.20;99.90
63802;DHT22;49949;43.060;25.624;2022-08-19T02:34:31;20.20;99.90
63802;DHT22;49949;43.060;25.624;2022-08-19T02:36:56;20.20;99.90
63802;DHT22;49949;43.060;25.624;2022-08-19T02:39:22;20.20;99.90
63802;DHT22;49949;43.060;25.624;2022-08-19T02:41:48;20.20;99.90
63802;DHT22;49949;43.060;25.624;2022-08-19T02:44:14;20.20;99.90
63802;DHT22;49949;43.060;25.624;2022-08-19T02:46:40;20.10;99.90
63802;DHT22;49949;43.060;25.624;2022-08-19T02:49:07;20.10;99.90
63802;DHT22;49949;43.060;25.624;2022-08-19T02:51:39;20.00;99.90
63802;DHT22;49949;43.060;25.624;2022-08-19T02:54:08;20.00;99.90
63802;DHT22;49949;43.060;25.624;2022-08-19T02:56:36;20.00;99.90
63802;DHT22;49949;43.060;25.624;2022-08-19T02:59:03;19.90;99.90
63802;DHT22;49949;43.060;25.624;2022-08-19T03:01:32;19.90;99.90
63802;DHT22;49949;43.060;25.624;2022-08-19T03:04:01;19.90;99.90
63802;DHT22;49949;43.060;25.624;2022-08-19T03:06:28;19.90;99.90
63802;DHT22;49949;43.060;25.624;2022-08-19T03:08:54;19.90;99.90
63802;DHT22;49949;43.060;25.624;2022-08-19T03:11:27;19.80;99.90
63802;DHT22;49949;43.060;25.624;2022-08-19T03:13:53;19.80;99.90
63802;DHT22;49949;43.060;25.624;2022-08-19T03:16:20;19.80;99.90
63802;DHT22;49949;43.060;25.624;2022-08-19T03:18:47;19.70;99.90
63802;DHT22;49949;43.060;25.624;2022-08-19T03:21:20;19.70;99.90
63802;DHT22;49949;43.060;25.624;2022-08-19T03:23:46;19.60;99.90
63802;DHT22;49949;43.060;25.624;2022-08-19T03:26:12;19.60;99.90
63802;DHT22;49949;43.060;25.624;2022-08-19T03:28:40;19.50;99.90
63802;DHT22;49949;43.060;25.624;2022-08-19T03:31:10;19.50;99.90
63802;DHT22;49949;43.060;25.624;2022-08-19T03:33:37;19.40;99.90
63802;DHT22;49949;43.060;25.624;2022-08-19T03:36:08;19.20;99.90
63802;DHT22;49949;43.060;25.624;2022-08-19T03:38:37;19.40;99.90
63802;DHT22;49949;43.060;25.624;2022-08-19T03:41:05;19.30;99.90
63802;DHT22;49949;43.060;25.624;2022-08-19T03:43:33;19.30;99.90
63802;DHT22;49949;43.060;25.624;2022-08-19T03:46:05;19.30;99.90
63802;DHT22;49949;43.060;25.624;2022-08-19T03:48:31;19.30;99.90
63802;DHT22;49949;43.060;25.624;2022-08-19T03:50:58;19.40;99.90
63802;DHT22;49949;43.060;25.624;2022-08-19T03:53:25;19.30;99.90
63802;DHT22;49949;43.060;25.624;2022-08-19T03:55:52;19.30;99.90
63802;DHT22;49949;43.060;25.624;2022-08-19T03:58:19;19.40;99.90
63802;DHT22;49949;43.060;25.624;2022-08-19T04:00:44;19.40;99.90
63802;DHT22;49949;43.060;25.624;2022-08-19T04:03:10;19.50;99.90
63802;DHT22;49949;43.060;25.624;2022-08-19T04:05:36;19.50;99.90
63802;DHT22;49949;43.060;25.624;2022-08-19T04:08:04;19.60;99.90
63802;DHT22;49949;43.060;25.624;2022-08-19T04:10:35;19.60;99.90
63802;DHT22;49949;43.060;25.624;2022-08-19T04:13:02;19.70;99.90
63802;DHT22;49949;43.060;25.624;2022-08-19T04:15:29;19.70;99.90
63802;DHT22;49949;43.060;25.624;2022-08-19T04:17:58;20.00;99.90
63802;DHT22;49949;43.060;25.624;2022-08-19T04:20:24;20.40;99.90
63802;DHT22;49949;43.060;25.624;2022-08-19T04:22:50;20.90;99.90
63802;DHT22;49949;43.060;25.624;2022-08-19T04:25:16;21.40;99.90
63802;DHT22;49949;43.060;25.624;2022-08-19T04:27:41;21.80;99.90
63802;DHT22;49949;43.060;25.624;2022-08-19T04:30:12;22.20;99.90
63802;DHT22;49949;43.060;25.624;2022-08-19T04:32:38;22.50;99.90
63802;DHT22;49949;43.060;25.624;2022-08-19T04:35:05;22.90;97.40
63802;DHT22;49949;43.060;25.624;2022-08-19T04:37:30;23.00;95.50
63802;DHT22;49949;43.060;25.624;2022-08-19T04:39:59;23.50;93.70
63802;DHT22;49949;43.060;25.624;2022-08-19T04:42:44;23.90;90.70
63802;DHT22;49949;43.060;25.624;2022-08-19T04:45:13;24.00;88.70
63802;DHT22;49949;43.060;25.624;2022-08-19T04:47:41;24.00;90.00
63802;DHT22;49949;43.060;25.624;2022-08-19T04:50:08;24.00;90.60
63802;DHT22;49949;43.060;25.624;2022-08-19T04:52:37;24.00;91.30
63802;DHT22;49949;43.060;25.624;2022-08-19T04:55:05;24.00;90.40
63802;DHT22;49949;43.060;25.624;2022-08-19T04:57:31;24.30;91.90
63802;DHT22;49949;43.060;25.624;2022-08-19T04:59:57;24.50;89.00
63802;DHT22;49949;43.060;25.624;2022-08-19T05:02:23;24.70;89.10
63802;DHT22;49949;43.060;25.624;2022-08-19T05:04:51;25.10;88.30
63802;DHT22;49949;43.060;25.624;2022-08-19T05:07:16;25.30;86.20
63802;DHT22;49949;43.060;25.624;2022-08-19T05:09:42;25.50;85.10
63802;DHT22;49949;43.060;25.624;2022-08-19T05:12:08;25.70;83.00
63802;DHT22;49949;43.060;25.624;2022-08-19T05:14:33;25.90;81.60
63802;DHT22;49949;43.060;25.624;2022-08-19T05:17:02;26.10;80.60
63802;DHT22;49949;43.060;25.624;2022-08-19T05:19:27;26.40;80.80
63802;DHT22;49949;43.060;25.624;2022-08-19T05:22:12;26.70;77.40
63802;DHT22;49949;43.060;25.624;2022-08-19T05:24:55;26.70;75.80
63802;DHT22;49949;43.060;25.624;2022-08-19T05:27:21;26.70;75.50
63802;DHT22;49949;43.060;25.624;2022-08-19T05:29:47;26.90;74.20
63802;DHT22;49949;43.060;25.624;2022-08-19T05:32:12;26.80;74.90
63802;DHT22;49949;43.060;25.624;2022-08-19T05:34:38;26.80;73.80
63802;DHT22;49949;43.060;25.624;2022-08-19T05:37:05;26.90;74.40
63802;DHT22;49949;43.060;25.624;2022-08-19T05:39:33;27.10;74.00
63802;DHT22;49949;43.060;25.624;2022-08-19T05:42:02;27.40;74.50
63802;DHT22;49949;43.060;25.624;2022-08-19T05:44:30;27.60;73.20
63802;DHT22;49949;43.060;25.624;2022-08-19T05:46:58;27.30;73.20
63802;DHT22;49949;43.060;25.624;2022-08-19T05:49:25;27.50;73.20
63802;DHT22;49949;43.060;25.624;2022-08-19T05:51:53;27.60;71.90
63802;DHT22;49949;43.060;25.624;2022-08-19T05:54:20;27.70;70.40
63802;DHT22;49949;43.060;25.624;2022-08-19T05:56:46;27.70;71.70
63802;DHT22;49949;43.060;25.624;2022-08-19T05:59:14;27.60;70.40
63802;DHT22;49949;43.060;25.624;2022-08-19T06:01:43;27.60;71.60
63802;DHT22;49949;43.060;25.624;2022-08-19T06:04:10;27.50;71.30
63802;DHT22;49949;43.060;25.624;2022-08-19T06:06:36;27.60;71.10
63802;DHT22;49949;43.060;25.624;2022-08-19T06:09:03;27.70;71.00
63802;DHT22;49949;43.060;25.624;2022-08-19T06:11:52;27.70;69.80
63802;DHT22;49949;43.060;25.624;2022-08-19T06:14:25;27.50;69.30
63802;DHT22;49949;43.060;25.624;2022-08-19T06:16:51;27.50;70.20
63802;DHT22;49949;43.060;25.624;2022-08-19T06:19:21;27.50;70.20
63802;DHT22;49949;43.060;25.624;2022-08-19T06:21:48;27.50;71.30
63802;DHT22;49949;43.060;25.624;2022-08-19T06:24:18;27.60;70.20
63802;DHT22;49949;43.060;25.624;2022-08-19T06:26:47;27.70;69.40
63802;DHT22;49949;43.060;25.624;2022-08-19T06:29:15;27.50;68.70
63802;DHT22;49949;43.060;25.624;2022-08-19T06:31:44;27.60;69.80
63802;DHT22;49949;43.060;25.624;2022-08-19T06:34:10;27.90;69.50
63802;DHT22;49949;43.060;25.624;2022-08-19T06:36:40;28.00;68.10
63802;DHT22;49949;43.060;25.624;2022-08-19T06:39:20;28.30;68.00
63802;DHT22;49949;43.060;25.624;2022-08-19T06:41:48;28.50;66.20
63802;DHT22;49949;43.060;25.624;2022-08-19T06:44:15;28.60;65.30
63802;DHT22;49949;43.060;25.624;2022-08-19T06:46:42;28.80;66.90
63802;DHT22;49949;43.060;25.624;2022-08-19T06:49:08;28.90;65.40
63802;DHT22;49949;43.060;25.624;2022-08-19T06:51:40;29.10;64.60
63802;DHT22;49949;43.060;25.624;2022-08-19T06:54:07;29.40;64.40
63802;DHT22;49949;43.060;25.624;2022-08-19T06:56:33;29.50;63.80
63802;DHT22;49949;43.060;25.624;2022-08-19T06:59:05;29.60;63.10
63802;DHT22;49949;43.060;25.624;2022-08-19T07:01:37;29.80;64.10
63802;DHT22;49949;43.060;25.624;2022-08-19T07:04:06;29.90;65.00
63802;DHT22;49949;43.060;25.624;2022-08-19T07:06:32;30.00;61.90
63802;DHT22;49949;43.060;25.624;2022-08-19T07:08:58;30.10;63.70
63802;DHT22;49949;43.060;25.624;2022-08-19T07:11:24;30.10;62.00
63802;DHT22;49949;43.060;25.624;2022-08-19T07:13:50;30.20;61.40
63802;DHT22;49949;43.060;25.624;2022-08-19T07:16:19;30.20;60.80
63802;DHT22;49949;43.060;25.624;2022-08-19T07:18:46;30.20;61.10
63802;DHT22;49949;43.060;25.624;2022-08-19T07:21:25;30.20;60.80
63802;DHT22;49949;43.060;25.624;2022-08-19T07:23:54;30.20;60.80
63802;DHT22;49949;43.060;25.624;2022-08-19T07:26:32;30.30;61.40
63802;DHT22;49949;43.060;25.624;2022-08-19T07:28:58;30.20;61.60
63802;DHT22;49949;43.060;25.624;2022-08-19T07:31:26;30.40;61.30
63802;DHT22;49949;43.060;25.624;2022-08-19T07:33:54;30.30;60.00
63802;DHT22;49949;43.060;25.624;2022-08-19T07:36:28;30.30;60.80
63802;DHT22;49949;43.060;25.624;2022-08-19T07:38:58;30.60;60.30
63802;DHT22;49949;43.060;25.624;2022-08-19T07:41:26;30.70;59.10
63802;DHT22;49949;43.060;25.624;2022-08-19T07:43:54;30.80;58.00
63802;DHT22;49949;43.060;25.624;2022-08-19T07:46:20;31.10;57.50
63802;DHT22;49949;43.060;25.624;2022-08-19T07:48:48;31.10;58.60
63802;DHT22;49949;43.060;25.624;2022-08-19T07:51:17;31.30;57.70
63802;DHT22;49949;43.060;25.624;2022-08-19T07:53:44;31.30;57.10
63802;DHT22;49949;43.060;25.624;2022-08-19T07:56:12;31.20;56.60
63802;DHT22;49949;43.060;25.624;2022-08-19T07:58:41;31.20;57.60
63802;DHT22;49949;43.060;25.624;2022-08-19T08:01:09;31.50;55.90
63802;DHT22;49949;43.060;25.624;2022-08-19T08:03:36;31.80;55.50
63802;DHT22;49949;43.060;25.624;2022-08-19T08:06:21;32.00;54.80
63802;DHT22;49949;43.060;25.624;2022-08-19T08:09:06;32.30;54.50
63802;DHT22;49949;43.060;25.624;2022-08-19T08:11:49;32.70;53.20
63802;DHT22;49949;43.060;25.624;2022-08-19T08:14:36;33.20;50.40
63802;DHT22;49949;43.060;25.624;2022-08-19T08:17:04;32.90;50.80
63802;DHT22;49949;43.060;25.624;2022-08-19T08:19:30;32.90;49.80
63802;DHT22;49949;43.060;25.624;2022-08-19T08:21:59;33.00;50.70
63802;DHT22;49949;43.060;25.624;2022-08-19T08:24:30;33.30;51.90
63802;DHT22;49949;43.060;25.624;2022-08-19T08:26:57;33.40;49.60
63802;DHT22;49949;43.060;25.624;2022-08-19T08:29:25;33.40;48.70
63802;DHT22;49949;43.060;25.624;2022-08-19T08:31:51;33.40;50.30
63802;DHT22;49949;43.060;25.624;2022-08-19T08:34:17;32.90;49.60
63802;DHT22;49949;43.060;25.624;2022-08-19T08:36:44;32.90;50.60
63802;DHT22;49949;43.060;25.624;2022-08-19T08:39:18;32.90;50.10
63802;DHT22;49949;43.060;25.624;2022-08-19T08:41:55;32.30;50.30
63802;DHT22;49949;43.060;25.624;2022-08-19T08:44:34;32.30;50.00
63802;DHT22;49949;43.060;25.624;2022-08-19T08:47:10;32.30;50.70
63802;DHT22;49949;43.060;25.624;2022-08-19T08:49:49;32.50;50.00
63802;DHT22;49949;43.060;25.624;2022-08-19T08:53:05;32.80;49.10
63802;DHT22;49949;43.060;25.624;2022-08-19T08:55:15;33.20;48.70
63802;DHT22;49949;43.060;25.624;2022-08-19T09:00:23;33.20;49.00
63802;DHT22;49949;43.060;25.624;2022-08-19T09:02:50;33.40;48.70
63802;DHT22;49949;43.060;25.624;2022-08-19T09:05:17;33.10;48.70
63802;DHT22;49949;43.060;25.624;2022-08-19T09:08:06;33.00;48.50
63802;DHT22;49949;43.060;25.624;2022-08-19T09:10:44;32.70;47.90
63802;DHT22;49949;43.060;25.624;2022-08-19T09:16:07;33.00;47.30
63802;DHT22;49949;43.060;25.624;2022-08-19T09:18:48;32.70;47.00
63802;DHT22;49949;43.060;25.624;2022-08-19T09:21:17;32.90;46.40
63802;DHT22;49949;43.060;25.624;2022-08-19T09:23:43;32.90;46.00
63802;DHT22;49949;43.060;25.624;2022-08-19T09:26:14;32.80;46.40
63802;DHT22;49949;43.060;25.624;2022-08-19T09:28:42;33.00;47.40
63802;DHT22;49949;43.060;25.624;2022-08-19T09:31:16;33.10;47.00
63802;DHT22;49949;43.060;25.624;2022-08-19T09:33:42;32.80;46.70
63802;DHT22;49949;43.060;25.624;2022-08-19T09:36:11;32.90;46.80
63802;DHT22;49949;43.060;25.624;2022-08-19T09:38:38;32.90;47.00
63802;DHT22;49949;43.060;25.624;2022-08-19T09:41:11;33.40;46.00
63802;DHT22;49949;43.060;25.624;2022-08-19T09:43:40;33.80;45.00
63802;DHT22;49949;43.060;25.624;2022-08-19T09:46:07;33.90;45.10
63802;DHT22;49949;43.060;25.624;2022-08-19T09:48:35;33.70;46.20
63802;DHT22;49949;43.060;25.624;2022-08-19T09:51:12;34.00;46.00
63802;DHT22;49949;43.060;25.624;2022-08-19T09:53:43;33.90;45.10
63802;DHT22;49949;43.060;25.624;2022-08-19T09:56:10;34.10;45.00
63802;DHT22;49949;43.060;25.624;2022-08-19T09:58:36;34.50;45.40
63802;DHT22;49949;43.060;25.624;2022-08-19T10:01:03;34.60;43.40
63802;DHT22;49949;43.060;25.624;2022-08-19T10:03:32;34.40;44.70
63802;DHT22;49949;43.060;25.624;2022-08-19T10:06:00;34.20;43.60
63802;DHT22;49949;43.060;25.624;2022-08-19T10:08:30;33.90;43.80
63802;DHT22;49949;43.060;25.624;2022-08-19T10:10:56;33.80;45.20
63802;DHT22;49949;43.060;25.624;2022-08-19T10:13:25;34.00;46.40
63802;DHT22;49949;43.060;25.624;2022-08-19T10:15:56;34.40;44.70
63802;DHT22;49949;43.060;25.624;2022-08-19T10:18:23;34.40;44.20
63802;DHT22;49949;43.060;25.624;2022-08-19T10:20:50;34.50;44.60
63802;DHT22;49949;43.060;25.624;2022-08-19T10:23:18;34.30;43.10
63802;DHT22;49949;43.060;25.624;2022-08-19T10:25:45;34.40;42.70
63802;DHT22;49949;43.060;25.624;2022-08-19T10:28:11;34.20;44.70
63802;DHT22;49949;43.060;25.624;2022-08-19T10:30:41;34.10;43.00
63802;DHT22;49949;43.060;25.624;2022-08-19T10:33:07;34.40;45.00
63802;DHT22;49949;43.060;25.624;2022-08-19T10:35:33;34.50;43.00
63802;DHT22;49949;43.060;25.624;2022-08-19T10:37:59;33.70;43.50
63802;DHT22;49949;43.060;25.624;2022-08-19T10:40:27;33.60;43.20
63802;DHT22;49949;43.060;25.624;2022-08-19T10:42:54;33.50;44.80
63802;DHT22;49949;43.060;25.624;2022-08-19T10:45:21;33.60;44.80
63802;DHT22;49949;43.060;25.624;2022-08-19T10:47:52;34.00;44.40
63802;DHT22;49949;43.060;25.624;2022-08-19T10:50:19;34.20;44.40
63802;DHT22;49949;43.060;25.624;2022-08-19T10:53:07;34.10;44.70
63802;DHT22;49949;43.060;25.624;2022-08-19T10:55:36;33.40;45.10
63802;DHT22;49949;43.060;25.624;2022-08-19T10:58:22;33.70;45.70
63802;DHT22;49949;43.060;25.624;2022-08-19T11:00:59;34.00;44.90
63802;DHT22;49949;43.060;25.624;2022-08-19T11:03:26;34.30;44.40
63802;DHT22;49949;43.060;25.624;2022-08-19T11:06:04;34.40;43.40
63802;DHT22;49949;43.060;25.624;2022-08-19T11:08:30;34.60;41.90
63802;DHT22;49949;43.060;25.624;2022-08-19T11:10:59;34.80;41.50
63802;DHT22;49949;43.060;25.624;2022-08-19T11:13:31;34.80;42.10
63802;DHT22;49949;43.060;25.624;2022-08-19T11:16:01;34.70;42.50
63802;DHT22;49949;43.060;25.624;2022-08-19T11:18:28;34.20;43.30
63802;DHT22;49949;43.060;25.624;2022-08-19T11:20:53;33.80;42.60
63802;DHT22;49949;43.060;25.624;2022-08-19T11:23:19;33.40;43.20
63802;DHT22;49949;43.060;25.624;2022-08-19T11:25:45;33.30;44.20
63802;DHT22;49949;43.060;25.624;2022-08-19T11:28:12;33.10;44.40
63802;DHT22;49949;43.060;25.624;2022-08-19T11:30:38;33.10;44.90
63802;DHT22;49949;43.060;25.624;2022-08-19T11:33:04;33.10;44.40
63802;DHT22;49949;43.060;25.624;2022-08-19T11:35:30;33.40;43.90
63802;DHT22;49949;43.060;25.624;2022-08-19T11:37:56;33.70;41.30
63802;DHT22;49949;43.060;25.624;2022-08-19T11:40:27;34.00;40.60
63802;DHT22;49949;43.060;25.624;2022-08-19T11:42:52;33.90;39.00
63802;DHT22;49949;43.060;25.624;2022-08-19T11:45:25;34.10;40.00
63802;DHT22;49949;43.060;25.624;2022-08-19T11:47:51;34.30;40.30
63802;DHT22;49949;43.060;25.624;2022-08-19T11:50:17;34.30;40.90
63802;DHT22;49949;43.060;25.624;2022-08-19T11:52:43;34.10;42.50
63802;DHT22;49949;43.060;25.624;2022-08-19T11:55:11;34.20;42.40
63802;DHT22;49949;43.060;25.624;2022-08-19T11:57:37;34.30;42.70
63802;DHT22;49949;43.060;25.624;2022-08-19T12:00:04;33.90;41.50
63802;DHT22;49949;43.060;25.624;2022-08-19T12:02:32;33.60;41.40
63802;DHT22;49949;43.060;25.624;2022-08-19T12:04:58;33.40;41.20
63802;DHT22;49949;43.060;25.624;2022-08-19T12:07:25;33.30;42.00
63802;DHT22;49949;43.060;25.624;2022-08-19T12:09:50;33.50;41.20
63802;DHT22;49949;43.060;25.624;2022-08-19T12:12:16;33.40;41.20
63802;DHT22;49949;43.060;25.624;2022-08-19T12:14:42;33.40;40.70
63802;DHT22;49949;43.060;25.624;2022-08-19T12:17:07;33.30;39.40
63802;DHT22;49949;43.060;25.624;2022-08-19T12:19:36;33.40;41.10
63802;DHT22;49949;43.060;25.624;2022-08-19T12:22:02;33.60;41.60
63802;DHT22;49949;43.060;25.624;2022-08-19T12:24:30;33.90;39.60
63802;DHT22;49949;43.060;25.624;2022-08-19T12:26:57;34.10;39.10
63802;DHT22;49949;43.060;25.624;2022-08-19T12:29:24;34.40;39.90
63802;DHT22;49949;43.060;25.624;2022-08-19T12:31:56;34.80;38.90
63802;DHT22;49949;43.060;25.624;2022-08-19T12:34:28;35.00;38.10
63802;DHT22;49949;43.060;25.624;2022-08-19T12:36:56;35.10;38.70
63802;DHT22;49949;43.060;25.624;2022-08-19T12:39:22;35.30;42.10
63802;DHT22;49949;43.060;25.624;2022-08-19T12:41:48;35.20;40.20
63802;DHT22;49949;43.060;25.624;2022-08-19T12:44:15;34.80;39.20
63802;DHT22;49949;43.060;25.624;2022-08-19T12:46:40;34.60;42.00
63802;DHT22;49949;43.060;25.624;2022-08-19T12:49:06;34.50;39.90
63802;DHT22;49949;43.060;25.624;2022-08-19T12:51:32;34.40;41.90
63802;DHT22;49949;43.060;25.624;2022-08-19T12:53:57;34.40;40.40
63802;DHT22;49949;43.060;25.624;2022-08-19T12:56:23;34.30;40.50
63802;DHT22;49949;43.060;25.624;2022-08-19T12:58:49;34.10;40.90
63802;DHT22;49949;43.060;25.624;2022-08-19T13:01:16;33.90;40.40
63802;DHT22;49949;43.060;25.624;2022-08-19T13:03:42;33.90;41.30
63802;DHT22;49949;43.060;25.624;2022-08-19T13:06:10;33.90;40.20
63802;DHT22;49949;43.060;25.624;2022-08-19T13:08:36;34.00;40.90
63802;DHT22;49949;43.060;25.624;2022-08-19T13:11:16;34.20;40.30
63802;DHT22;49949;43.060;25.624;2022-08-19T13:13:45;34.40;40.90
63802;DHT22;49949;43.060;25.624;2022-08-19T13:16:12;34.50;39.90
63802;DHT22;49949;43.060;25.624;2022-08-19T13:18:39;34.50;38.40
63802;DHT22;49949;43.060;25.624;2022-08-19T13:21:07;34.10;40.20
63802;DHT22;49949;43.060;25.624;2022-08-19T13:23:34;33.80;40.20
63802;DHT22;49949;43.060;25.624;2022-08-19T13:26:03;33.80;40.60
63802;DHT22;49949;43.060;25.624;2022-08-19T13:28:30;33.70;40.60
63802;DHT22;49949;43.060;25.624;2022-08-19T13:31:17;33.80;40.60
63802;DHT22;49949;43.060;25.624;2022-08-19T13:34:02;33.90;41.10
63802;DHT22;49949;43.060;25.624;2022-08-19T13:36:28;34.20;39.90
63802;DHT22;49949;43.060;25.624;2022-08-19T13:38:54;34.20;39.90
63802;DHT22;49949;43.060;25.624;2022-08-19T13:41:22;34.30;39.70
63802;DHT22;49949;43.060;25.624;2022-08-19T13:43:47;34.30;40.40
63802;DHT22;49949;43.060;25.624;2022-08-19T13:46:14;34.30;40.20
63802;DHT22;49949;43.060;25.624;2022-08-19T13:48:40;34.20;40.20
63802;DHT22;49949;43.060;25.624;2022-08-19T13:51:07;34.20;40.40
63802;DHT22;49949;43.060;25.624;2022-08-19T13:53:39;34.30;40.60
63802;DHT22;49949;43.060;25.624;2022-08-19T13:56:09;34.40;40.40
63802;DHT22;49949;43.060;25.624;2022-08-19T13:58:36;34.20;40.40
63802;DHT22;49949;43.060;25.624;2022-08-19T14:01:03;34.10;40.60
63802;DHT22;49949;43.060;25.624;2022-08-19T14:03:29;34.00;41.20
63802;DHT22;49949;43.060;25.624;2022-08-19T14:05:55;34.20;41.10
63802;DHT22;49949;43.060;25.624;2022-08-19T14:08:22;34.20;39.30
63802;DHT22;49949;43.060;25.624;2022-08-19T14:10:48;34.00;39.60
63802;DHT22;49949;43.060;25.624;2022-08-19T14:13:18;33.80;39.90
63802;DHT22;49949;43.060;25.624;2022-08-19T14:15:44;33.70;40.40
63802;DHT22;49949;43.060;25.624;2022-08-19T14:18:10;33.70;41.60
63802;DHT22;49949;43.060;25.624;2022-08-19T14:20:36;33.60;40.70
63802;DHT22;49949;43.060;25.624;2022-08-19T14:23:03;33.70;40.10
63802;DHT22;49949;43.060;25.624;2022-08-19T14:25:31;33.50;40.20
63802;DHT22;49949;43.060;25.624;2022-08-19T14:27:58;33.40;40.60
63802;DHT22;49949;43.060;25.624;2022-08-19T14:30:32;33.40;40.60
63802;DHT22;49949;43.060;25.624;2022-08-19T14:33:00;33.40;40.40
63802;DHT22;49949;43.060;25.624;2022-08-19T14:35:27;33.50;39.60
63802;DHT22;49949;43.060;25.624;2022-08-19T14:37:54;33.70;39.90
63802;DHT22;49949;43.060;25.624;2022-08-19T14:40:22;33.90;39.60
63802;DHT22;49949;43.060;25.624;2022-08-19T14:43:02;34.00;39.10
63802;DHT22;49949;43.060;25.624;2022-08-19T14:45:35;34.10;38.90
63802;DHT22;49949;43.060;25.624;2022-08-19T14:48:01;34.10;39.70
63802;DHT22;49949;43.060;25.624;2022-08-19T14:50:27;34.20;39.80
63802;DHT22;49949;43.060;25.624;2022-08-19T14:53:01;34.10;40.10
63802;DHT22;49949;43.060;25.624;2022-08-19T14:55:30;34.10;40.50
63802;DHT22;49949;43.060;25.624;2022-08-19T14:57:56;34.10;40.10
63802;DHT22;49949;43.060;25.624;2022-08-19T15:00:22;34.20;40.40
63802;DHT22;49949;43.060;25.624;2022-08-19T15:02:49;34.10;40.10
63802;DHT22;49949;43.060;25.624;2022-08-19T15:05:14;34.10;40.10
63802;DHT22;49949;43.060;25.624;2022-08-19T15:07:40;34.10;39.90
63802;DHT22;49949;43.060;25.624;2022-08-19T15:10:08;34.00;39.40
63802;DHT22;49949;43.060;25.624;2022-08-19T15:12:35;34.00;38.70
63802;DHT22;49949;43.060;25.624;2022-08-19T15:15:01;34.00;38.80
63802;DHT22;49949;43.060;25.624;2022-08-19T15:17:27;34.00;39.30
63802;DHT22;49949;43.060;25.624;2022-08-19T15:19:55;34.00;39.10
63802;DHT22;49949;43.060;25.624;2022-08-19T15:22:21;33.90;38.40
63802;DHT22;49949;43.060;25.624;2022-08-19T15:24:47;33.80;39.20
63802;DHT22;49949;43.060;25.624;2022-08-19T15:27:13;33.80;39.60
63802;DHT22;49949;43.060;25.624;2022-08-19T15:29:39;33.90;39.50